Jet, OK

6:06 PM CDT on March 30, 2015 (GMT -0500)
Amateur Radio W5PDB | | Change Station
CLOSE
Current Station
Personal Weather Station
Location: Jet, OK
Elevation: 1280 ft
Nearby Weather Stations

Elev 1280 ft 36.67 °N, 98.18 °W | Updated 12 seconds ago

Partly Cloudy
Partly Cloudy
77.7 °F
Feels Like 77 °F
N
3.0
Wind Variable Wind from SSE
Gusts 6.0 mph

Today
High -- | Low -- °F
--% Chance of Precip.
Yesterday
High -- | Low -- °F
Precip. -- in
7:21 AM 7:52 PM
Waxing Gibbous, 82% visible
Pressure 29.97 in
Visibility 10.0 miles
Clouds Mostly Cloudy 25000 ft
Heat Index 77 °F
Dew Point 23 °F
Humidity 13%
Rainfall 0.00 in
Snow Depth Not available.
UV 1 out of 12
Pollen 11.80 out of 12
Air Quality Not available.
Flu Activity Not available.
METAR KEND 302255Z 18010KT 10SM BKN250 24/04 A2998 RMK AO2A SLP149

More Conditions Fewer Conditions

Pressure 29.97 in
Visibility 10.0 miles
Clouds Mostly Cloudy 25000 ft
Heat Index 77 °F
Dew Point 23 °F
Humidity 13%
Rainfall 0.00 in
Snow Depth Not available.
UV 1 out of 12
Pollen 11.80 out of 12
Air Quality Not available.
Flu Activity Not available.
METAR KEND 302255Z 18010KT 10SM BKN250 24/04 A2998 RMK AO2A SLP149

More Conditions Fewer Conditions

10-Day Weather Forecast

Almanac

Astronomy

Mar. 30, 2015 Rise Set
Actual Time
Civil Twilight
Nautical Twilight
Astronomical Twilight
Moon
Length of Visible Light
Length of Day
Tomorrow will be .
, % of the Moon is Illuminated

Today's Extremes

State Highs State Lows

Community

WunderPhotos

Upload Photos

1,809,617 photos uploaded!

WunderBlogs® & News

Nearby

Air Quality

  Air Quality AQ Index Pollutant
Not available.

Snow Depth

Station Depth Elevation

Earthquake Activity

City Distance Mag. Time & Date
Minimum magnitude displayed is 2.5.

Coastal Water Temperatures

Place Temperature

Stations

Nearby Weather Stations

Station Location Temp. Windchill Dew Point Humidity Wind Precip. Elev Updated Type